Terminal Aerodrome Forecast
Issued by NWS Lubbock, TX

Home | Current Version | Previous Version | Text Only | Print | Product List | Glossary On
Versions: 1 2 3 4 5 6 7 8 9 10 11 12 13 14 15 16 17
000
FTUS44 KLUB 270916 AAB
TAFLBB
TAF AMD
KLBB 270916Z 2709/2806 09011KT 1 1/2SM -SN OVC004
      TEMPO 2710/2713 1/2SM SN
     FM271800 11011KT P6SM BKN006 OVC010 PROB30 2718/2724 -SN=

USA.gov is the U.S. government's official web portal to all federal, state and local government web resources and services.